Time;durP1;ratioP1;P1;durP2;ratioP2;P2;SDS_P1;SDS_P2;PMS_P1;PMS_P2;Temp;Humidity;BMP_temperature;BMP_pressure;BME280_temperature;BME280_humidity;BME280_pressure;Samples;Min_cycle;Max_cycle;Signal;HPM_P1;HPM_P2
2023/11/01 00:01:53;;;;;;;8.43;6.80;;;9.40;99.90;;;;;;5020036;28;20038;-81
2023/11/01 00:04:19;;;;;;;9.45;6.95;;;9.50;99.90;;;;;;5000747;28;20101;-82
2023/11/01 00:06:45;;;;;;;7.88;6.50;;;9.50;99.90;;;;;;5006882;28;20058;-80
2023/11/01 00:09:10;;;;;;;12.60;7.28;;;9.40;99.90;;;;;;4998395;28;20092;-82
2023/11/01 00:11:36;;;;;;;10.45;6.97;;;9.50;99.90;;;;;;5002384;28;20050;-81
2023/11/01 00:14:02;;;;;;;9.20;7.10;;;9.50;99.90;;;;;;4998383;28;20053;-84
2023/11/01 00:16:28;;;;;;;12.85;6.93;;;9.50;99.90;;;;;;4998798;28;20451;-81
2023/11/01 00:18:54;;;;;;;11.70;7.32;;;9.50;99.90;;;;;;5007738;28;20042;-82
2023/11/01 00:21:20;;;;;;;9.55;6.05;;;9.50;99.90;;;;;;5004569;28;20031;-82
2023/11/01 00:23:47;;;;;;;8.07;7.32;;;9.50;99.90;;;;;;5003056;28;20093;-82
2023/11/01 00:26:12;;;;;;;9.07;7.25;;;9.50;99.90;;;;;;5013434;28;20507;-82
2023/11/01 00:28:40;;;;;;;11.27;7.25;;;9.50;99.90;;;;;;5004908;28;20033;-84
2023/11/01 00:31:06;;;;;;;8.48;6.95;;;9.50;99.90;;;;;;4998190;28;20045;-83
2023/11/01 00:33:32;;;;;;;9.63;7.45;;;9.60;99.90;;;;;;5005249;28;20149;-82
2023/11/01 00:35:58;;;;;;;11.18;7.68;;;9.60;99.90;;;;;;5006985;28;20042;-83
2023/11/01 00:38:24;;;;;;;9.15;7.72;;;9.60;99.90;;;;;;5010162;28;20521;-82
2023/11/01 00:40:50;;;;;;;10.48;6.80;;;9.60;99.90;;;;;;5006146;28;20293;-83
2023/11/01 00:43:16;;;;;;;10.65;7.80;;;9.60;99.90;;;;;;5008424;28;20505;-82
2023/11/01 00:45:41;;;;;;;11.63;7.03;;;9.50;99.90;;;;;;5008715;28;20061;-80
2023/11/01 00:48:07;;;;;;;7.53;6.70;;;9.50;99.90;;;;;;5021051;28;20034;-82
2023/11/01 00:50:33;;;;;;;6.78;5.78;;;9.50;99.90;;;;;;4976416;28;20076;-80
2023/11/01 00:52:59;;;;;;;9.35;7.03;;;9.60;99.90;;;;;;4997238;28;20028;-80
2023/11/01 00:55:24;;;;;;;10.43;6.32;;;9.50;99.90;;;;;;5005059;28;20034;-80
2023/11/01 00:57:50;;;;;;;6.25;5.50;;;9.50;99.90;;;;;;5004537;28;20064;-81
2023/11/01 01:00:16;;;;;;;10.18;5.78;;;9.50;99.90;;;;;;5002423;28;20039;-80
2023/11/01 01:02:42;;;;;;;7.63;5.80;;;9.50;99.90;;;;;;5001984;28;20064;-81
2023/11/01 01:05:08;;;;;;;12.93;5.95;;;9.50;99.90;;;;;;5005312;28;20625;-81
2023/11/01 01:07:35;;;;;;;7.60;5.78;;;9.50;99.90;;;;;;5012125;28;20054;-80
2023/11/01 01:10:01;;;;;;;9.00;6.10;;;9.60;99.90;;;;;;5006855;28;20499;-80
2023/11/01 01:12:27;;;;;;;8.98;6.13;;;9.60;99.90;;;;;;4998582;28;20042;-81
2023/11/01 01:14:53;;;;;;;8.77;5.60;;;9.60;99.90;;;;;;5007955;28;20034;-81
2023/11/01 01:17:19;;;;;;;7.53;6.00;;;9.50;99.90;;;;;;5011177;28;20034;-79
2023/11/01 01:19:44;;;;;;;7.47;6.50;;;9.50;99.90;;;;;;5003197;28;20636;-81
2023/11/01 01:22:14;;;;;;;9.35;6.60;;;9.60;99.90;;;;;;5004783;28;20046;-79
2023/11/01 01:24:40;;;;;;;11.82;6.85;;;9.50;99.90;;;;;;5004041;28;20022;-80
2023/11/01 01:27:06;;;;;;;9.63;6.72;;;9.50;99.90;;;;;;5019556;28;20525;-80
2023/11/01 01:29:31;;;;;;;7.78;6.57;;;9.50;99.90;;;;;;5008604;28;20057;-79
2023/11/01 01:31:57;;;;;;;8.38;6.40;;;9.60;99.90;;;;;;5003352;28;20026;-81
2023/11/01 01:34:23;;;;;;;10.93;6.72;;;9.50;99.90;;;;;;5010113;28;20030;-81
2023/11/01 01:36:48;;;;;;;9.05;6.63;;;9.50;99.90;;;;;;5008181;28;20084;-80
2023/11/01 01:39:14;;;;;;;8.60;6.88;;;9.50;99.90;;;;;;5011075;28;20088;-79
2023/11/01 01:41:40;;;;;;;8.25;6.63;;;9.50;99.90;;;;;;5008801;28;20080;-80
2023/11/01 01:44:06;;;;;;;13.20;6.75;;;9.50;99.90;;;;;;5009483;28;20030;-81
2023/11/01 01:46:33;;;;;;;9.35;7.07;;;9.50;99.90;;;;;;5006559;28;20046;-80
2023/11/01 01:48:59;;;;;;;10.65;7.05;;;9.50;99.90;;;;;;5009811;28;20026;-80
2023/11/01 01:51:27;;;;;;;8.43;6.20;;;9.50;99.90;;;;;;5005025;28;20594;-81
2023/11/01 01:53:55;;;;;;;12.30;6.68;;;9.40;99.90;;;;;;5001869;28;20117;-81
2023/11/01 01:56:21;;;;;;;9.43;6.60;;;9.50;99.90;;;;;;5017116;28;20034;-80
2023/11/01 01:58:50;;;;;;;5.82;5.05;;;9.50;99.90;;;;;;5013978;28;20079;-80
2023/11/01 02:01:18;;;;;;;9.18;5.28;;;9.50;99.90;;;;;;5004919;28;20526;-80
2023/11/01 02:03:44;;;;;;;6.90;4.80;;;9.40;99.90;;;;;;5019145;28;20645;-80
2023/11/01 02:06:09;;;;;;;5.55;4.47;;;9.50;99.90;;;;;;5004352;28;20026;-80
2023/11/01 02:08:38;;;;;;;5.13;4.35;;;9.40;99.90;;;;;;5002967;28;20033;-79
2023/11/01 02:11:04;;;;;;;4.10;3.70;;;9.50;99.90;;;;;;5004880;28;20023;-81
2023/11/01 02:13:31;;;;;;;5.68;3.72;;;9.40;99.90;;;;;;5007392;28;20026;-81
2023/11/01 02:15:57;;;;;;;5.70;3.55;;;9.40;99.90;;;;;;5006511;28;20230;-80
2023/11/01 02:18:22;;;;;;;5.28;3.40;;;9.40;99.90;;;;;;5009386;28;20022;-80
2023/11/01 02:20:49;;;;;;;4.57;3.25;;;9.40;99.90;;;;;;4995350;28;20045;-78
2023/11/01 02:23:15;;;;;;;3.92;3.08;;;9.30;99.90;;;;;;5003292;28;20022;-81
2023/11/01 02:25:42;;;;;;;4.30;2.92;;;9.30;99.90;;;;;;5006659;28;20045;-81
2023/11/01 02:28:10;;;;;;;4.57;2.97;;;9.30;99.90;;;;;;5017956;28;20087;-81
2023/11/01 02:30:38;;;;;;;3.22;2.97;;;9.30;99.90;;;;;;5004259;28;20029;-80
2023/11/01 02:33:04;;;;;;;6.03;2.92;;;9.30;99.90;;;;;;5002947;28;20030;-80
2023/11/01 02:35:30;;;;;;;5.65;2.80;;;9.30;99.90;;;;;;5004419;28;20034;-81
2023/11/01 02:37:55;;;;;;;3.50;2.65;;;9.30;99.90;;;;;;5010262;28;20033;-80
2023/11/01 02:40:21;;;;;;;6.55;2.78;;;9.30;99.90;;;;;;5009132;28;20078;-81
2023/11/01 02:42:51;;;;;;;6.85;2.60;;;9.20;99.90;;;;;;4998475;28;20031;-79
2023/11/01 02:45:17;;;;;;;4.20;2.65;;;9.30;99.90;;;;;;5009824;28;20026;-80
2023/11/01 02:47:44;;;;;;;5.55;3.28;;;9.30;99.90;;;;;;5004736;28;20033;-80
2023/11/01 02:50:12;;;;;;;5.45;2.25;;;9.20;99.90;;;;;;4998645;28;20445;-80
2023/11/01 02:52:38;;;;;;;5.80;2.33;;;9.20;99.90;;;;;;4994770;28;20038;-80
2023/11/01 02:55:23;;;;;;;4.63;2.20;;;9.20;99.90;;;;;;5006306;28;20081;-80
2023/11/01 02:57:49;;;;;;;6.97;2.45;;;9.20;99.90;;;;;;5016550;28;20042;-80
2023/11/01 03:00:21;;;;;;;8.63;2.40;;;9.10;99.90;;;;;;4992303;28;20027;-80
2023/11/01 03:02:48;;;;;;;4.43;2.45;;;9.10;99.90;;;;;;5002584;28;20152;-81
2023/11/01 03:05:15;;;;;;;4.55;2.03;;;9.10;99.90;;;;;;5010665;28;20102;-81
2023/11/01 03:07:41;;;;;;;4.22;2.33;;;9.10;99.90;;;;;;5009089;28;20092;-80
2023/11/01 03:10:09;;;;;;;5.15;2.30;;;9.10;99.90;;;;;;5012501;28;20562;-80
2023/11/01 03:12:38;;;;;;;3.85;1.98;;;9.10;99.90;;;;;;5009083;28;20037;-79
2023/11/01 03:15:07;;;;;;;5.45;1.85;;;9.10;99.90;;;;;;5001411;28;20075;-80
2023/11/01 03:17:34;;;;;;;7.63;3.38;;;9.10;99.90;;;;;;5018791;28;20033;-80
2023/11/01 03:20:02;;;;;;;6.85;2.00;;;9.10;99.90;;;;;;5010479;28;20065;-81
2023/11/01 03:22:28;;;;;;;4.25;1.70;;;9.10;99.90;;;;;;5000782;28;20038;-80
2023/11/01 03:24:54;;;;;;;3.55;1.90;;;9.00;99.90;;;;;;5007260;28;20085;-80
2023/11/01 03:27:20;;;;;;;3.03;1.50;;;9.00;99.90;;;;;;5019207;28;20616;-80
2023/11/01 03:29:46;;;;;;;5.53;2.10;;;9.00;99.90;;;;;;5001979;28;20538;-81
2023/11/01 03:32:11;;;;;;;2.80;1.45;;;9.00;99.90;;;;;;5001273;28;20061;-81
2023/11/01 03:34:37;;;;;;;5.18;1.60;;;9.00;99.90;;;;;;5023839;28;20066;-80
2023/11/01 03:37:03;;;;;;;9.50;2.13;;;9.00;99.90;;;;;;5023868;28;20116;-80
2023/11/01 03:39:29;;;;;;;8.18;1.60;;;9.00;99.90;;;;;;5000414;28;20441;-81
2023/11/01 03:41:55;;;;;;;3.63;1.60;;;9.10;99.90;;;;;;5005192;28;20048;-80
2023/11/01 03:44:23;;;;;;;1.60;1.50;;;9.00;99.90;;;;;;4999219;28;20671;-81
2023/11/01 03:46:48;;;;;;;5.25;1.67;;;9.00;99.90;;;;;;5011437;28;20084;-81
2023/11/01 03:49:14;;;;;;;3.38;1.70;;;9.00;99.90;;;;;;5019453;28;20034;-81
2023/11/01 03:51:40;;;;;;;6.65;1.73;;;9.00;99.90;;;;;;5006274;28;20034;-81
2023/11/01 03:54:06;;;;;;;3.80;1.90;;;9.10;99.90;;;;;;5010139;28;20052;-80
2023/11/01 03:56:31;;;;;;;2.30;2.00;;;9.10;99.90;;;;;;5017309;28;20549;-80
2023/11/01 03:58:58;;;;;;;4.55;1.90;;;9.00;99.90;;;;;;5000465;28;21321;-82
2023/11/01 04:01:24;;;;;;;5.47;2.80;;;9.10;99.90;;;;;;5002952;28;20072;-81
2023/11/01 04:03:50;;;;;;;3.95;2.08;;;9.10;99.90;;;;;;5005004;28;20477;-81
2023/11/01 04:06:16;;;;;;;3.92;2.88;;;9.10;99.90;;;;;;5011887;28;20041;-79
2023/11/01 04:08:42;;;;;;;4.22;2.90;;;9.10;99.90;;;;;;5014771;28;20117;-80
2023/11/01 04:11:08;;;;;;;6.82;2.72;;;9.10;99.90;;;;;;5012829;28;20111;-80
2023/11/01 04:13:52;;;;;;;5.28;2.70;;;9.00;99.90;;;;;;5006455;28;20096;-79
2023/11/01 04:16:18;;;;;;;5.95;3.20;;;9.00;99.90;;;;;;5013538;28;20030;-81
2023/11/01 04:18:43;;;;;;;3.20;2.53;;;9.00;99.90;;;;;;5013743;28;20398;-83
2023/11/01 04:21:09;;;;;;;8.73;2.38;;;9.00;99.90;;;;;;5004189;28;20030;-80
2023/11/01 04:23:35;;;;;;;3.47;2.55;;;9.00;99.90;;;;;;5005539;28;20088;-80
2023/11/01 04:26:01;;;;;;;4.75;2.75;;;9.00;99.90;;;;;;5006804;28;20524;-80
2023/11/01 04:28:27;;;;;;;6.35;2.58;;;9.00;99.90;;;;;;5016452;28;20030;-80
2023/11/01 04:30:52;;;;;;;2.85;2.65;;;9.00;99.90;;;;;;5007846;28;20033;-81
2023/11/01 04:33:18;;;;;;;3.08;2.63;;;9.00;99.90;;;;;;5003704;28;20390;-80
2023/11/01 04:35:44;;;;;;;4.43;2.53;;;9.00;99.90;;;;;;5006221;28;20123;-81
2023/11/01 04:38:11;;;;;;;5.95;2.42;;;9.00;99.90;;;;;;5013113;28;20037;-78
2023/11/01 04:40:37;;;;;;;4.70;2.60;;;9.00;99.90;;;;;;5001790;28;20120;-81
2023/11/01 04:43:03;;;;;;;4.10;2.28;;;9.00;99.90;;;;;;5002387;28;20018;-81
2023/11/01 04:45:31;;;;;;;5.07;2.28;;;9.00;99.90;;;;;;5009093;28;20463;-79
2023/11/01 04:47:57;;;;;;;2.30;2.15;;;9.00;99.90;;;;;;5021781;28;20402;-80
2023/11/01 04:50:23;;;;;;;3.15;1.90;;;9.00;99.90;;;;;;5004294;28;20588;-79
2023/11/01 04:52:49;;;;;;;4.47;2.45;;;9.00;99.90;;;;;;5004445;28;20128;-82
2023/11/01 04:55:15;;;;;;;3.53;2.38;;;9.00;99.90;;;;;;5005658;28;20026;-82
2023/11/01 04:57:47;;;;;;;2.25;2.03;;;9.00;99.90;;;;;;5014577;28;20034;-81
2023/11/01 05:00:15;;;;;;;2.28;2.08;;;9.00;99.90;;;;;;5006489;28;20042;-79
2023/11/01 05:02:48;;;;;;;2.40;2.10;;;9.00;99.90;;;;;;5004096;28;20026;-79
2023/11/01 05:05:14;;;;;;;4.53;2.78;;;9.00;99.90;;;;;;5002902;28;20033;-80
2023/11/01 05:07:41;;;;;;;3.22;1.63;;;9.00;99.90;;;;;;5014172;28;20397;-80
2023/11/01 05:10:07;;;;;;;2.90;1.80;;;9.00;99.90;;;;;;5005965;28;20144;-80
2023/11/01 05:12:33;;;;;;;5.32;2.20;;;9.00;99.90;;;;;;4998745;28;20065;-80
2023/11/01 05:15:00;;;;;;;4.10;2.05;;;9.00;99.90;;;;;;5007079;28;20104;-79
2023/11/01 05:17:26;;;;;;;3.10;1.90;;;9.00;99.90;;;;;;5015235;28;20042;-80
2023/11/01 05:19:51;;;;;;;3.75;1.90;;;9.00;99.90;;;;;;5004445;28;20034;-81
2023/11/01 05:22:17;;;;;;;3.67;1.50;;;9.00;99.90;;;;;;5006294;28;20108;-79
2023/11/01 05:24:47;;;;;;;2.70;1.58;;;9.00;99.90;;;;;;5003105;28;20036;-80
2023/11/01 05:27:14;;;;;;;3.50;1.75;;;9.00;99.90;;;;;;5011667;28;20026;-80
2023/11/01 05:29:40;;;;;;;2.30;1.90;;;9.00;99.90;;;;;;5003461;28;20553;-80
2023/11/01 05:32:07;;;;;;;3.28;1.60;;;9.00;99.90;;;;;;5003623;28;20080;-80
2023/11/01 05:34:32;;;;;;;4.03;1.70;;;9.00;99.90;;;;;;5001281;28;20037;-80
2023/11/01 05:36:58;;;;;;;2.75;1.67;;;9.00;99.90;;;;;;5002047;28;20026;-81
2023/11/01 05:39:24;;;;;;;2.45;1.90;;;9.00;99.90;;;;;;4999969;28;20058;-79
2023/11/01 05:41:53;;;;;;;4.95;2.28;;;9.00;99.90;;;;;;4996994;28;20054;-81
2023/11/01 05:44:19;;;;;;;4.72;2.53;;;9.00;99.90;;;;;;4996199;28;20510;-81
2023/11/01 05:46:46;;;;;;;3.42;1.85;;;9.00;99.90;;;;;;5007502;28;20038;-81
2023/11/01 05:49:12;;;;;;;3.65;2.35;;;9.00;99.90;;;;;;5000093;28;20120;-79
2023/11/01 05:51:37;;;;;;;4.22;2.17;;;9.00;99.90;;;;;;5000501;28;20944;-82
2023/11/01 05:54:03;;;;;;;4.78;2.47;;;9.00;99.90;;;;;;5002599;28;20026;-80
2023/11/01 05:56:29;;;;;;;9.40;2.95;;;9.00;99.90;;;;;;5001580;28;20046;-80
2023/11/01 05:58:55;;;;;;;6.07;3.17;;;9.00;99.90;;;;;;4997138;28;20926;-79
2023/11/01 06:01:23;;;;;;;2.53;2.33;;;9.00;99.90;;;;;;5002445;28;20038;-81
2023/11/01 06:03:50;;;;;;;6.70;2.50;;;9.00;99.90;;;;;;5006665;28;20465;-80
2023/11/01 06:06:17;;;;;;;5.22;2.95;;;9.10;99.90;;;;;;5005021;28;20030;-82
2023/11/01 06:08:42;;;;;;;4.53;2.33;;;9.00;99.90;;;;;;5000602;28;20030;-80
2023/11/01 06:11:08;;;;;;;3.22;2.22;;;9.10;99.90;;;;;;5003284;28;20053;-80
2023/11/01 06:13:34;;;;;;;3.30;2.80;;;9.00;99.90;;;;;;5009259;28;20034;-80
2023/11/01 06:16:04;;;;;;;4.75;3.40;;;9.10;99.90;;;;;;4991501;28;20030;-82
2023/11/01 06:18:34;;;;;;;6.15;2.83;;;9.10;99.90;;;;;;5014357;28;20042;-83
2023/11/01 06:21:00;;;;;;;4.82;2.88;;;9.00;99.90;;;;;;4994122;28;20033;-82
2023/11/01 06:23:26;;;;;;;4.75;2.63;;;9.10;99.90;;;;;;4989546;28;20066;-79
2023/11/01 06:25:51;;;;;;;8.05;3.58;;;9.10;99.90;;;;;;5000198;28;20109;-79
2023/11/01 06:28:17;;;;;;;4.30;2.60;;;9.00;99.90;;;;;;5013308;28;20030;-82
2023/11/01 06:30:44;;;;;;;7.00;2.65;;;9.00;99.90;;;;;;5008703;28;20031;-80
2023/11/01 06:33:10;;;;;;;4.07;2.85;;;9.00;99.90;;;;;;5021902;28;20068;-81
2023/11/01 06:35:37;;;;;;;3.83;2.78;;;9.00;99.90;;;;;;5012721;28;20502;-80
2023/11/01 06:38:02;;;;;;;4.43;2.67;;;9.10;99.90;;;;;;5010279;28;20057;-81
2023/11/01 06:40:28;;;;;;;7.40;3.08;;;9.10;99.90;;;;;;5006515;28;20092;-81
2023/11/01 06:42:54;;;;;;;4.20;2.60;;;9.10;99.90;;;;;;5007282;28;20018;-82
2023/11/01 06:45:20;;;;;;;3.97;2.83;;;9.10;99.90;;;;;;5006727;28;20375;-79
2023/11/01 06:48:05;;;;;;;3.40;2.50;;;9.10;99.90;;;;;;5010424;28;20045;-81
2023/11/01 06:50:31;;;;;;;4.30;2.33;;;9.10;99.90;;;;;;5008694;28;20060;-82
2023/11/01 06:52:57;;;;;;;5.82;2.70;;;9.10;99.90;;;;;;5004249;28;20030;-80
2023/11/01 06:55:23;;;;;;;3.75;2.72;;;9.10;99.90;;;;;;5009282;28;20034;-80
2023/11/01 06:57:51;;;;;;;7.22;2.85;;;9.20;99.90;;;;;;5008627;28;20033;-79
2023/11/01 07:00:16;;;;;;;5.43;3.00;;;9.20;99.90;;;;;;5006310;28;20026;-82
2023/11/01 07:02:42;;;;;;;6.38;3.08;;;9.20;99.90;;;;;;5010311;28;20108;-80
2023/11/01 07:05:08;;;;;;;6.25;2.97;;;9.30;99.90;;;;;;5011963;28;20097;-81
2023/11/01 07:07:34;;;;;;;6.93;3.10;;;9.30;99.90;;;;;;5008856;28;20701;-80
2023/11/01 07:10:00;;;;;;;4.90;2.72;;;9.30;99.90;;;;;;4994941;28;20030;-80
2023/11/01 07:12:26;;;;;;;4.07;2.83;;;9.30;99.90;;;;;;5005468;28;20521;-80
2023/11/01 07:14:52;;;;;;;6.57;3.22;;;9.30;99.90;;;;;;5003805;28;20038;-79
2023/11/01 07:17:18;;;;;;;4.32;3.17;;;9.40;99.90;;;;;;5011621;28;20274;-82
2023/11/01 07:19:43;;;;;;;3.95;3.25;;;9.40;99.90;;;;;;5010260;28;20045;-81
2023/11/01 07:22:10;;;;;;;3.28;2.97;;;9.50;99.90;;;;;;4999108;28;20034;-81
2023/11/01 07:24:36;;;;;;;7.35;3.00;;;9.50;99.90;;;;;;5004318;28;20100;-79
2023/11/01 07:27:02;;;;;;;5.05;3.13;;;9.50;99.90;;;;;;5010953;28;20026;-80
2023/11/01 07:29:28;;;;;;;4.78;3.25;;;9.50;99.90;;;;;;5001433;28;20910;-82
2023/11/01 07:31:54;;;;;;;6.75;3.15;;;9.60;99.90;;;;;;5010628;28;20032;-82
2023/11/01 07:34:19;;;;;;;5.45;3.42;;;9.60;99.90;;;;;;5011809;28;20549;-79
2023/11/01 07:36:45;;;;;;;3.08;2.60;;;9.60;99.90;;;;;;5007973;28;20056;-80
2023/11/01 07:39:11;;;;;;;4.90;3.00;;;9.70;99.90;;;;;;5002649;28;20088;-81
2023/11/01 07:41:38;;;;;;;6.55;2.97;;;9.70;99.90;;;;;;5004718;28;20042;-81
2023/11/01 07:44:05;;;;;;;3.95;2.80;;;9.80;99.90;;;;;;5006707;28;20022;-80
2023/11/01 07:46:30;;;;;;;4.90;2.80;;;9.80;99.90;;;;;;5007993;28;20418;-81
2023/11/01 07:48:56;;;;;;;4.82;3.20;;;9.80;99.90;;;;;;5010295;28;20029;-81
2023/11/01 07:51:23;;;;;;;4.72;2.65;;;9.80;99.90;;;;;;5004021;28;20562;-79
2023/11/01 07:53:49;;;;;;;5.47;3.20;;;9.90;99.90;;;;;;5000558;28;20068;-81
2023/11/01 07:56:36;;;;;;;6.30;3.72;;;9.90;99.90;;;;;;5008802;28;20048;-81
2023/11/01 07:59:01;;;;;;;4.35;2.95;;;9.90;99.90;;;;;;4999961;28;20026;-80
2023/11/01 08:01:27;;;;;;;4.75;2.72;;;9.90;99.90;;;;;;4998887;28;20541;-80
2023/11/01 08:03:59;;;;;;;2.95;2.60;;;9.90;99.90;;;;;;5008671;28;20093;-80
2023/11/01 08:06:25;;;;;;;4.55;3.25;;;9.90;99.90;;;;;;5010164;28;20064;-79
2023/11/01 08:08:51;;;;;;;6.32;3.20;;;9.90;99.90;;;;;;4998072;28;20054;-80
2023/11/01 08:11:17;;;;;;;3.45;2.90;;;9.90;99.90;;;;;;5008429;28;20494;-82
2023/11/01 08:13:43;;;;;;;6.22;3.03;;;9.90;99.90;;;;;;5009429;28;20045;-80
2023/11/01 08:16:09;;;;;;;6.25;2.72;;;10.00;99.90;;;;;;5006830;28;20072;-80
2023/11/01 08:18:34;;;;;;;6.28;2.67;;;10.00;99.90;;;;;;5006410;28;20026;-78
2023/11/01 08:21:00;;;;;;;2.97;2.67;;;10.10;99.90;;;;;;5010383;28;20434;-79
2023/11/01 08:23:26;;;;;;;5.93;4.00;;;10.10;99.90;;;;;;5007640;28;20045;-80
2023/11/01 08:25:52;;;;;;;6.00;3.38;;;10.20;99.90;;;;;;5004750;28;20034;-80
2023/11/01 08:28:18;;;;;;;6.93;3.35;;;10.30;99.90;;;;;;5007102;28;20085;-80
2023/11/01 08:30:44;;;;;;;4.32;2.40;;;10.40;99.90;;;;;;4999158;28;20063;-80
2023/11/01 08:33:46;;;;;;;5.00;3.33;;;10.50;99.90;;;;;;4997373;28;20042;-79
2023/11/01 08:36:09;;;;;;;9.82;3.30;;;10.60;99.90;;;;;;4996905;28;20124;-78
2023/11/01 08:38:38;;;;;;;8.88;2.92;;;10.80;99.90;;;;;;4999872;28;20141;-79
2023/11/01 08:41:04;;;;;;;5.30;2.50;;;10.90;99.90;;;;;;4997003;28;20026;-79
2023/11/01 08:43:31;;;;;;;4.40;2.80;;;11.00;99.90;;;;;;5001751;28;20564;-79
2023/11/01 08:46:15;;;;;;;5.07;2.13;;;11.00;99.90;;;;;;5002252;28;20068;-80
2023/11/01 08:48:41;;;;;;;4.65;2.65;;;11.10;99.90;;;;;;5005681;28;20471;-80
2023/11/01 08:51:09;;;;;;;2.85;1.98;;;11.10;99.90;;;;;;4997767;28;20026;-79
2023/11/01 08:53:38;;;;;;;6.50;2.30;;;11.20;99.90;;;;;;5002668;28;20469;-81
2023/11/01 08:56:05;;;;;;;4.28;2.03;;;11.20;99.90;;;;;;4998668;28;20080;-80
2023/11/01 08:58:31;;;;;;;3.83;1.90;;;11.30;99.90;;;;;;5002351;28;20080;-81
2023/11/01 09:00:57;;;;;;;5.68;1.92;;;11.30;99.90;;;;;;4999257;28;20034;-80
2023/11/01 09:03:25;;;;;;;3.55;1.88;;;11.40;99.90;;;;;;5003555;28;20045;-79
2023/11/01 09:05:52;;;;;;;4.57;1.95;;;11.40;99.90;;;;;;5008020;28;20506;-80
2023/11/01 09:08:18;;;;;;;3.45;1.95;;;11.50;99.90;;;;;;5013432;28;20022;-79
2023/11/01 09:10:44;;;;;;;7.93;1.92;;;11.50;99.90;;;;;;5003435;28;20049;-80
2023/11/01 09:13:11;;;;;;;3.80;1.50;;;11.50;99.90;;;;;;4994286;28;20034;-81
2023/11/01 09:15:36;;;;;;;4.68;1.30;;;11.60;99.90;;;;;;4996223;28;20386;-77
2023/11/01 09:18:04;;;;;;;4.20;1.50;;;11.70;99.90;;;;;;5004061;28;20036;-81
2023/11/01 09:20:29;;;;;;;1.83;1.60;;;11.70;99.90;;;;;;5003863;28;20046;-79
2023/11/01 09:22:56;;;;;;;4.78;1.77;;;11.80;99.90;;;;;;4996131;28;20080;-80
2023/11/01 09:25:22;;;;;;;4.10;1.50;;;11.90;99.90;;;;;;4999821;28;20211;-80
2023/11/01 09:27:48;;;;;;;2.10;1.55;;;11.90;99.90;;;;;;5008877;28;20026;-80
2023/11/01 09:30:14;;;;;;;3.35;1.88;;;12.00;99.90;;;;;;4997511;28;20799;-79
2023/11/01 09:32:39;;;;;;;4.72;1.30;;;12.00;99.90;;;;;;4991785;28;20034;-80
2023/11/01 09:35:08;;;;;;;3.63;1.10;;;12.10;99.90;;;;;;4997320;28;20048;-79
2023/11/01 09:37:34;;;;;;;3.58;1.35;;;12.10;99.90;;;;;;5000340;28;20053;-79
2023/11/01 09:40:00;;;;;;;3.42;1.02;;;12.10;99.90;;;;;;4996923;28;20406;-79
2023/11/01 09:42:27;;;;;;;2.70;1.13;;;12.10;99.90;;;;;;4998636;28;20599;-77
2023/11/01 09:44:57;;;;;;;3.58;0.93;;;12.10;99.90;;;;;;5002645;28;20038;-79
2023/11/01 09:47:27;;;;;;;2.03;1.20;;;12.10;99.90;;;;;;5013793;28;20393;-80
2023/11/01 09:49:54;;;;;;;3.03;1.35;;;12.20;99.90;;;;;;5003113;28;20037;-80
2023/11/01 09:52:21;;;;;;;4.40;1.13;;;12.20;99.90;;;;;;4982909;28;20050;-80
2023/11/01 09:54:47;;;;;;;9.35;1.33;;;12.30;99.90;;;;;;5008118;28;20104;-82
2023/11/01 09:57:15;;;;;;;3.05;1.27;;;12.30;99.90;;;;;;5016266;28;20553;-81
2023/11/01 09:59:42;;;;;;;3.40;1.20;;;12.30;99.90;;;;;;5000587;28;20029;-83
2023/11/01 10:02:12;;;;;;;1.55;1.10;;;12.40;99.90;;;;;;5005382;28;20705;-83
2023/11/01 10:04:39;;;;;;;3.58;1.05;;;12.40;99.90;;;;;;5002904;28;20121;-83
2023/11/01 10:07:06;;;;;;;4.55;1.05;;;12.40;99.90;;;;;;5018149;28;20584;-80
2023/11/01 10:09:33;;;;;;;3.38;1.10;;;12.40;99.90;;;;;;5001654;28;20030;-83
2023/11/01 10:11:58;;;;;;;2.55;0.95;;;12.50;99.90;;;;;;4998453;28;20434;-80
2023/11/01 10:14:28;;;;;;;5.70;1.20;;;12.50;99.90;;;;;;5004670;28;20033;-82
2023/11/01 10:16:58;;;;;;;6.75;1.10;;;12.50;99.90;;;;;;5005033;28;20113;-80
2023/11/01 10:19:25;;;;;;;3.95;0.93;;;12.60;99.90;;;;;;5007182;28;20025;-82
2023/11/01 10:21:54;;;;;;;2.70;0.70;;;12.60;99.90;;;;;;5001769;28;20082;-81
2023/11/01 10:24:27;;;;;;;2.70;0.98;;;12.60;99.90;;;;;;4995868;28;20022;-80
2023/11/01 10:26:54;;;;;;;3.30;0.80;;;12.50;99.90;;;;;;5002657;28;20106;-81
2023/11/01 10:29:21;;;;;;;3.60;0.80;;;12.50;99.90;;;;;;5011616;28;20018;-84
2023/11/01 10:31:59;;;;;;;1.40;0.80;;;12.60;99.90;;;;;;5012715;28;20034;-82
2023/11/01 10:34:31;;;;;;;4.00;0.93;;;12.60;99.90;;;;;;5012221;28;20038;-83
2023/11/01 10:36:59;;;;;;;2.80;0.90;;;12.60;99.90;;;;;;5016328;28;20109;-83
2023/11/01 10:39:26;;;;;;;3.70;1.05;;;12.60;99.90;;;;;;4991877;28;20425;-83
2023/11/01 10:41:53;;;;;;;3.55;1.13;;;12.60;99.90;;;;;;4987200;28;20031;-83
2023/11/01 10:44:21;;;;;;;1.73;0.70;;;12.50;99.90;;;;;;5006574;28;20070;-84
2023/11/01 10:46:50;;;;;;;2.53;1.00;;;12.60;99.90;;;;;;5013266;28;20080;-82
2023/11/01 10:49:16;;;;;;;3.38;1.27;;;12.60;99.90;;;;;;5010696;28;20018;-84
2023/11/01 10:51:43;;;;;;;1.65;0.70;;;12.50;99.90;;;;;;5009002;28;20081;-86
2023/11/01 10:54:10;;;;;;;2.63;0.70;;;12.50;99.90;;;;;;5002115;28;20031;-83
2023/11/01 10:56:37;;;;;;;4.25;0.77;;;12.40;99.90;;;;;;4980315;28;20026;-83
2023/11/01 10:59:43;;;;;;;7.22;1.10;;;12.40;99.90;;;;;;4986312;28;20095;-84
2023/11/01 11:02:21;;;;;;;5.60;0.82;;;12.30;99.90;;;;;;4982165;28;20426;-80
2023/11/01 11:04:57;;;;;;;4.22;0.73;;;12.30;99.90;;;;;;5005194;28;20046;-80
2023/11/01 11:07:44;;;;;;;2.92;0.68;;;12.40;99.90;;;;;;5018251;28;20052;-79
2023/11/01 11:10:28;;;;;;;2.80;0.90;;;12.40;99.90;;;;;;5002036;28;20085;-77
2023/11/01 11:13:19;;;;;;;1.70;0.70;;;12.50;99.90;;;;;;5000281;28;20033;-79
2023/11/01 11:15:56;;;;;;;2.78;0.90;;;12.50;99.90;;;;;;5008750;28;20057;-80
2023/11/01 11:18:24;;;;;;;6.72;0.85;;;12.50;99.90;;;;;;5014641;28;20057;-81
2023/11/01 11:20:55;;;;;;;3.10;0.85;;;12.50;99.90;;;;;;4985949;28;20105;-79
2023/11/01 11:23:35;;;;;;;4.07;0.70;;;12.50;99.90;;;;;;5003261;28;20475;-79
2023/11/01 11:26:02;;;;;;;5.90;0.77;;;12.50;99.90;;;;;;4998771;28;20705;-79
2023/11/01 11:28:40;;;;;;;3.15;0.80;;;12.40;99.90;;;;;;5001728;28;20076;-80
2023/11/01 11:31:18;;;;;;;2.92;0.68;;;12.50;99.90;;;;;;5003908;28;20084;-81
2023/11/01 11:33:46;;;;;;;4.57;1.00;;;12.50;99.90;;;;;;5009745;28;20049;-80
2023/11/01 11:36:20;;;;;;;3.88;1.35;;;12.50;99.90;;;;;;5004311;28;20038;-81
2023/11/01 11:38:51;;;;;;;3.25;0.70;;;12.50;99.90;;;;;;5010484;28;20037;-81
2023/11/01 11:41:27;;;;;;;2.75;0.70;;;12.40;99.90;;;;;;4987680;28;20609;-81
2023/11/01 11:44:16;;;;;;;2.08;0.60;;;12.40;99.90;;;;;;4998286;28;20022;-80
2023/11/01 11:46:55;;;;;;;7.50;1.00;;;12.40;99.90;;;;;;5001637;28;20026;-80
2023/11/01 11:49:27;;;;;;;4.05;1.00;;;12.40;99.90;;;;;;5001476;28;20124;-80
2023/11/01 11:51:55;;;;;;;3.78;0.73;;;12.40;99.90;;;;;;4995061;28;20030;-79
2023/11/01 11:54:23;;;;;;;2.38;0.80;;;12.40;99.90;;;;;;4999121;28;20038;-82
2023/11/01 11:56:57;;;;;;;2.88;0.90;;;12.40;99.90;;;;;;5008770;28;20038;-79
2023/11/01 11:59:25;;;;;;;5.22;0.98;;;12.50;99.90;;;;;;5001245;28;20065;-81
2023/11/01 12:02:12;;;;;;;2.30;0.68;;;12.50;99.90;;;;;;5009459;28;20052;-79
2023/11/01 12:04:42;;;;;;;3.63;0.63;;;12.50;99.90;;;;;;5016041;28;20045;-79
2023/11/01 12:07:15;;;;;;;3.30;0.65;;;12.50;99.90;;;;;;5009978;28;20114;-79
2023/11/01 12:09:56;;;;;;;5.32;0.77;;;12.50;99.90;;;;;;5012140;28;20124;-80
2023/11/01 12:12:24;;;;;;;4.40;0.80;;;12.60;99.90;;;;;;5006225;28;20037;-81
2023/11/01 12:15:00;;;;;;;4.43;0.55;;;12.60;99.90;;;;;;5004332;28;20038;-80
2023/11/01 12:17:26;;;;;;;2.97;0.60;;;12.60;99.90;;;;;;4991923;28;20046;-82
2023/11/01 12:19:55;;;;;;;2.55;0.75;;;12.60;99.90;;;;;;5011772;28;20052;-81
2023/11/01 12:22:21;;;;;;;3.75;0.80;;;12.70;99.90;;;;;;5008322;28;20033;-82
2023/11/01 12:24:48;;;;;;;2.03;0.70;;;12.70;99.90;;;;;;5000284;28;20026;-80
2023/11/01 12:27:29;;;;;;;4.85;0.93;;;12.80;99.90;;;;;;5011149;28;20653;-81
2023/11/01 12:29:55;;;;;;;3.63;0.90;;;12.70;99.90;;;;;;5011372;28;20022;-80
2023/11/01 12:32:21;;;;;;;2.22;0.70;;;12.70;99.90;;;;;;5004237;28;20037;-82
2023/11/01 12:34:50;;;;;;;2.88;0.60;;;12.70;99.90;;;;;;4998367;28;20042;-82
2023/11/01 12:37:23;;;;;;;4.82;1.50;;;12.70;99.90;;;;;;5004978;28;20030;-80
2023/11/01 12:40:13;;;;;;;1.90;0.60;;;12.60;99.90;;;;;;5001235;28;20038;-80
2023/11/01 12:42:39;;;;;;;4.30;0.63;;;12.60;99.90;;;;;;4997388;28;21026;-78
2023/11/01 12:45:06;;;;;;;4.53;0.88;;;12.60;99.90;;;;;;5006287;28;20046;-81
2023/11/01 12:47:52;;;;;;;3.63;0.80;;;12.60;99.90;;;;;;5015818;28;20535;-79
2023/11/01 12:50:26;;;;;;;5.50;0.85;;;12.60;99.90;;;;;;5009555;28;20251;-79
2023/11/01 12:52:52;;;;;;;3.25;0.60;;;12.70;99.90;;;;;;4998576;28;20040;-80
2023/11/01 12:55:18;;;;;;;7.03;0.80;;;12.70;99.90;;;;;;5020286;28;20030;-80
2023/11/01 12:57:46;;;;;;;3.63;0.80;;;12.80;99.90;;;;;;5005842;28;20561;-81